Terminal Aerodrome Forecast
Issued by NWS

Home | Current Version | Previous Version | Text Only | Print | Product List | Glossary On
Versions: 1 2 3 4 5 6 7 8 9 10 11 12 13 14 15 16 17
000
FTUS45 KVEF 070535
TAFBIH
TAF
KBIH 070535Z 0706/0806 13005KT P6SM SCT120 BKN200
     FM070800 34004KT P6SM SKC
     FM071900 17014G22KT P6SM SCT120 BKN200
     FM072100 19014G22KT P6SM VCTS SCT100CB BKN150
     FM080400 24008KT P6SM FEW100 SCT150=

USA.gov is the U.S. government's official web portal to all federal, state and local government web resources and services.